Hovedside
METAR-TAF:

METAR-TAF

Lufthavner :

Stockholm, Sverige

Bromma lufthavn

breddegrad: 59-21N, lengdegrad: 017-57E, høyde over havet: 14 m

Gjeldene værobservasjon

Denne rapporten ble laget for 24 minutter siden, klokken 20:20 UTC
Vind 12 kt fra Nordvest
Temperatur 12°C
Luftfuktighet 50%
Trykk 1017 hPa
Sikt 10 km eller mer

METAR: ESSB 262020Z AUTO 32012KT 9999 NCD 12/02 Q1017

Tid: 22:44 (20:44 UTC)

Varsel

Denne rapporten ble laget for 3 timer og 14 minutter siden, klokken 17:30 UTC
Varsel gyldig fra 26. klokken 18 UTC til 26. klokken 21 UTC
Vind 12 kt fra Vest-nordvest
Sikt 10 km eller mer
ingen skyer under 1500 m og ingen bygeskyer

TAF: ESSB 261730Z 2618/2621 30012KT CAVOK

Værobservasjoner og værvarsel for over 4000 flyplasser (METAR- og TAF-rapporter).

Tilgjengelige stasjoner er representert av de røde og gule prikkene på kartet.

Hold musepekeren over prikken for å se navnet på stasjonen.

Klikk så for å se værobservasjoner og -varsler.

For å forandre kartet kan du klikke på den grønne knappen med svart kryss for å zoome inn, på den grønne knappen med strek for å zoome ut, eller på de grønne pilene for å se tilstøtende kart.


METAR-TAF: